sensor_id;sensor_type;location;lat;lon;timestamp;P1;durP1;ratioP1;P2;durP2;ratioP2
65463;SDS011;52063;45.110;9.870;2023-07-20T00:01:05;4.50;;;2.45;;
65463;SDS011;52063;45.110;9.870;2023-07-20T00:03:31;6.33;;;2.17;;
65463;SDS011;52063;45.110;9.870;2023-07-20T00:05:56;10.13;;;2.63;;
65463;SDS011;52063;45.110;9.870;2023-07-20T00:08:22;5.15;;;2.60;;
65463;SDS011;52063;45.110;9.870;2023-07-20T00:10:47;4.87;;;2.10;;
65463;SDS011;52063;45.110;9.870;2023-07-20T00:13:13;6.23;;;2.40;;
65463;SDS011;52063;45.110;9.870;2023-07-20T00:15:40;8.07;;;2.50;;
65463;SDS011;52063;45.110;9.870;2023-07-20T00:18:06;5.50;;;2.42;;
65463;SDS011;52063;45.110;9.870;2023-07-20T00:20:32;7.73;;;2.30;;
65463;SDS011;52063;45.110;9.870;2023-07-20T00:22:57;4.85;;;2.55;;
65463;SDS011;52063;45.110;9.870;2023-07-20T00:25:23;7.17;;;3.07;;
65463;SDS011;52063;45.110;9.870;2023-07-20T00:27:49;3.53;;;2.40;;
65463;SDS011;52063;45.110;9.870;2023-07-20T00:30:15;6.20;;;2.73;;
65463;SDS011;52063;45.110;9.870;2023-07-20T00:32:42;4.18;;;2.95;;
65463;SDS011;52063;45.110;9.870;2023-07-20T00:35:08;8.15;;;2.80;;
65463;SDS011;52063;45.110;9.870;2023-07-20T00:37:34;10.57;;;2.60;;
65463;SDS011;52063;45.110;9.870;2023-07-20T00:39:59;6.53;;;2.83;;
65463;SDS011;52063;45.110;9.870;2023-07-20T00:42:25;6.47;;;3.30;;
65463;SDS011;52063;45.110;9.870;2023-07-20T00:44:51;7.00;;;3.00;;
65463;SDS011;52063;45.110;9.870;2023-07-20T00:47:16;7.33;;;2.63;;
65463;SDS011;52063;45.110;9.870;2023-07-20T00:49:41;5.72;;;2.97;;
65463;SDS011;52063;45.110;9.870;2023-07-20T00:52:08;6.93;;;2.63;;
65463;SDS011;52063;45.110;9.870;2023-07-20T00:54:36;5.15;;;2.70;;
65463;SDS011;52063;45.110;9.870;2023-07-20T00:57:02;9.00;;;3.33;;
65463;SDS011;52063;45.110;9.870;2023-07-20T00:59:28;5.37;;;3.07;;
65463;SDS011;52063;45.110;9.870;2023-07-20T01:01:54;9.80;;;3.10;;
65463;SDS011;52063;45.110;9.870;2023-07-20T01:04:20;5.05;;;2.88;;
65463;SDS011;52063;45.110;9.870;2023-07-20T01:12:14;5.75;;;3.00;;
65463;SDS011;52063;45.110;9.870;2023-07-20T01:14:42;5.88;;;3.00;;
65463;SDS011;52063;45.110;9.870;2023-07-20T01:17:08;8.23;;;3.30;;
65463;SDS011;52063;45.110;9.870;2023-07-20T01:19:34;5.00;;;3.00;;
65463;SDS011;52063;45.110;9.870;2023-07-20T01:30:25;4.00;;;2.60;;
65463;SDS011;52063;45.110;9.870;2023-07-20T01:32:55;6.93;;;3.03;;
65463;SDS011;52063;45.110;9.870;2023-07-20T01:35:23;6.80;;;3.00;;
65463;SDS011;52063;45.110;9.870;2023-07-20T01:37:53;5.35;;;2.88;;
65463;SDS011;52063;45.110;9.870;2023-07-20T01:40:19;5.90;;;2.93;;
65463;SDS011;52063;45.110;9.870;2023-07-20T01:42:45;5.60;;;3.03;;
65463;SDS011;52063;45.110;9.870;2023-07-20T01:45:12;6.22;;;3.10;;
65463;SDS011;52063;45.110;9.870;2023-07-20T01:47:37;6.53;;;3.23;;
65463;SDS011;52063;45.110;9.870;2023-07-20T01:50:03;6.40;;;2.80;;
65463;SDS011;52063;45.110;9.870;2023-07-20T01:52:29;4.80;;;2.88;;
65463;SDS011;52063;45.110;9.870;2023-07-20T01:54:56;3.97;;;2.70;;
65463;SDS011;52063;45.110;9.870;2023-07-20T01:57:21;6.67;;;2.77;;
65463;SDS011;52063;45.110;9.870;2023-07-20T01:59:47;5.30;;;3.10;;
65463;SDS011;52063;45.110;9.870;2023-07-20T02:02:12;5.97;;;2.83;;
65463;SDS011;52063;45.110;9.870;2023-07-20T02:04:37;5.80;;;3.67;;
65463;SDS011;52063;45.110;9.870;2023-07-20T02:07:03;5.67;;;2.77;;
65463;SDS011;52063;45.110;9.870;2023-07-20T02:09:29;7.78;;;3.00;;
65463;SDS011;52063;45.110;9.870;2023-07-20T02:11:54;6.37;;;3.23;;
65463;SDS011;52063;45.110;9.870;2023-07-20T02:14:20;6.05;;;3.00;;
65463;SDS011;52063;45.110;9.870;2023-07-20T02:16:47;4.97;;;2.87;;
65463;SDS011;52063;45.110;9.870;2023-07-20T02:19:18;5.25;;;3.05;;
65463;SDS011;52063;45.110;9.870;2023-07-20T02:21:44;5.25;;;3.28;;
65463;SDS011;52063;45.110;9.870;2023-07-20T02:24:09;4.17;;;2.80;;
65463;SDS011;52063;45.110;9.870;2023-07-20T02:26:35;7.22;;;3.42;;
65463;SDS011;52063;45.110;9.870;2023-07-20T02:29:00;5.40;;;3.70;;
65463;SDS011;52063;45.110;9.870;2023-07-20T02:31:29;8.15;;;3.75;;
65463;SDS011;52063;45.110;9.870;2023-07-20T02:33:55;5.50;;;3.70;;
65463;SDS011;52063;45.110;9.870;2023-07-20T02:36:20;5.47;;;3.33;;
65463;SDS011;52063;45.110;9.870;2023-07-20T02:38:46;7.43;;;3.22;;
65463;SDS011;52063;45.110;9.870;2023-07-20T02:41:12;7.40;;;3.17;;
65463;SDS011;52063;45.110;9.870;2023-07-20T02:43:38;5.43;;;3.75;;
65463;SDS011;52063;45.110;9.870;2023-07-20T02:46:04;5.73;;;3.83;;
65463;SDS011;52063;45.110;9.870;2023-07-20T02:48:29;5.63;;;3.53;;
65463;SDS011;52063;45.110;9.870;2023-07-20T02:50:54;7.15;;;3.28;;
65463;SDS011;52063;45.110;9.870;2023-07-20T02:53:20;6.20;;;3.30;;
65463;SDS011;52063;45.110;9.870;2023-07-20T02:55:45;5.70;;;3.33;;
65463;SDS011;52063;45.110;9.870;2023-07-20T02:58:11;7.78;;;3.08;;
65463;SDS011;52063;45.110;9.870;2023-07-20T03:00:37;6.13;;;3.40;;
65463;SDS011;52063;45.110;9.870;2023-07-20T03:03:02;7.30;;;3.27;;
65463;SDS011;52063;45.110;9.870;2023-07-20T03:05:28;5.13;;;3.70;;
65463;SDS011;52063;45.110;9.870;2023-07-20T03:07:54;5.43;;;3.60;;
65463;SDS011;52063;45.110;9.870;2023-07-20T03:10:20;11.05;;;3.10;;
65463;SDS011;52063;45.110;9.870;2023-07-20T03:12:46;5.63;;;3.50;;
65463;SDS011;52063;45.110;9.870;2023-07-20T03:15:11;5.10;;;3.07;;
65463;SDS011;52063;45.110;9.870;2023-07-20T03:17:37;6.80;;;3.53;;
65463;SDS011;52063;45.110;9.870;2023-07-20T03:20:03;6.72;;;2.85;;
65463;SDS011;52063;45.110;9.870;2023-07-20T03:22:30;5.50;;;2.83;;
65463;SDS011;52063;45.110;9.870;2023-07-20T03:24:56;6.80;;;2.93;;
65463;SDS011;52063;45.110;9.870;2023-07-20T03:27:21;4.90;;;3.27;;
65463;SDS011;52063;45.110;9.870;2023-07-20T03:29:46;6.50;;;3.13;;
65463;SDS011;52063;45.110;9.870;2023-07-20T03:32:12;4.50;;;3.13;;
65463;SDS011;52063;45.110;9.870;2023-07-20T03:34:37;6.03;;;3.10;;
65463;SDS011;52063;45.110;9.870;2023-07-20T03:37:04;6.93;;;3.95;;
65463;SDS011;52063;45.110;9.870;2023-07-20T03:39:30;10.43;;;3.92;;
65463;SDS011;52063;45.110;9.870;2023-07-20T03:41:55;10.20;;;3.60;;
65463;SDS011;52063;45.110;9.870;2023-07-20T03:44:23;8.02;;;3.72;;
65463;SDS011;52063;45.110;9.870;2023-07-20T03:46:48;6.47;;;4.00;;
65463;SDS011;52063;45.110;9.870;2023-07-20T03:49:14;5.93;;;3.45;;
65463;SDS011;52063;45.110;9.870;2023-07-20T03:51:39;5.27;;;4.27;;
65463;SDS011;52063;45.110;9.870;2023-07-20T03:54:05;7.27;;;4.17;;
65463;SDS011;52063;45.110;9.870;2023-07-20T03:56:30;7.47;;;4.13;;
65463;SDS011;52063;45.110;9.870;2023-07-20T03:58:59;8.30;;;4.07;;
65463;SDS011;52063;45.110;9.870;2023-07-20T04:01:24;7.07;;;3.37;;
65463;SDS011;52063;45.110;9.870;2023-07-20T04:03:50;4.00;;;3.47;;
65463;SDS011;52063;45.110;9.870;2023-07-20T04:06:15;6.13;;;3.67;;
65463;SDS011;52063;45.110;9.870;2023-07-20T04:08:42;5.50;;;3.92;;
65463;SDS011;52063;45.110;9.870;2023-07-20T04:11:08;6.70;;;3.97;;
65463;SDS011;52063;45.110;9.870;2023-07-20T04:13:34;8.10;;;4.13;;
65463;SDS011;52063;45.110;9.870;2023-07-20T04:15:59;7.23;;;4.00;;
65463;SDS011;52063;45.110;9.870;2023-07-20T04:18:25;8.75;;;4.35;;
65463;SDS011;52063;45.110;9.870;2023-07-20T04:20:50;7.13;;;4.30;;
65463;SDS011;52063;45.110;9.870;2023-07-20T04:23:16;8.07;;;4.60;;
65463;SDS011;52063;45.110;9.870;2023-07-20T04:25:42;7.80;;;4.27;;
65463;SDS011;52063;45.110;9.870;2023-07-20T04:28:10;7.38;;;4.57;;
65463;SDS011;52063;45.110;9.870;2023-07-20T04:30:38;8.23;;;4.50;;
65463;SDS011;52063;45.110;9.870;2023-07-20T04:33:05;8.23;;;4.45;;
65463;SDS011;52063;45.110;9.870;2023-07-20T04:35:48;9.53;;;4.13;;
65463;SDS011;52063;45.110;9.870;2023-07-20T04:38:20;15.63;;;4.67;;
65463;SDS011;52063;45.110;9.870;2023-07-20T04:40:51;10.77;;;4.53;;
65463;SDS011;52063;45.110;9.870;2023-07-20T04:43:16;9.43;;;4.60;;
65463;SDS011;52063;45.110;9.870;2023-07-20T04:45:42;7.30;;;4.28;;
65463;SDS011;52063;45.110;9.870;2023-07-20T04:48:09;11.18;;;4.45;;
65463;SDS011;52063;45.110;9.870;2023-07-20T04:50:44;13.40;;;4.90;;
65463;SDS011;52063;45.110;9.870;2023-07-20T04:53:14;11.30;;;4.20;;
65463;SDS011;52063;45.110;9.870;2023-07-20T04:55:40;10.00;;;4.70;;
65463;SDS011;52063;45.110;9.870;2023-07-20T04:58:06;11.45;;;4.30;;
65463;SDS011;52063;45.110;9.870;2023-07-20T05:00:33;9.63;;;4.15;;
65463;SDS011;52063;45.110;9.870;2023-07-20T05:02:59;7.75;;;4.00;;
65463;SDS011;52063;45.110;9.870;2023-07-20T05:05:24;7.33;;;3.60;;
65463;SDS011;52063;45.110;9.870;2023-07-20T05:07:50;10.07;;;4.45;;
65463;SDS011;52063;45.110;9.870;2023-07-20T05:10:16;11.87;;;4.67;;
65463;SDS011;52063;45.110;9.870;2023-07-20T05:12:41;11.15;;;4.15;;
65463;SDS011;52063;45.110;9.870;2023-07-20T05:15:07;8.23;;;4.00;;
65463;SDS011;52063;45.110;9.870;2023-07-20T05:17:35;11.35;;;4.32;;
65463;SDS011;52063;45.110;9.870;2023-07-20T05:20:00;10.13;;;4.87;;
65463;SDS011;52063;45.110;9.870;2023-07-20T05:22:26;9.40;;;4.05;;
65463;SDS011;52063;45.110;9.870;2023-07-20T05:24:52;6.43;;;4.10;;
65463;SDS011;52063;45.110;9.870;2023-07-20T05:27:17;14.20;;;4.03;;
65463;SDS011;52063;45.110;9.870;2023-07-20T05:29:43;6.83;;;3.83;;
65463;SDS011;52063;45.110;9.870;2023-07-20T05:32:09;7.88;;;4.00;;
65463;SDS011;52063;45.110;9.870;2023-07-20T05:34:35;9.90;;;4.00;;
65463;SDS011;52063;45.110;9.870;2023-07-20T05:37:00;9.90;;;4.40;;
65463;SDS011;52063;45.110;9.870;2023-07-20T05:39:25;8.10;;;4.40;;
65463;SDS011;52063;45.110;9.870;2023-07-20T05:41:51;9.30;;;4.03;;
65463;SDS011;52063;45.110;9.870;2023-07-20T05:44:16;8.20;;;3.90;;
65463;SDS011;52063;45.110;9.870;2023-07-20T05:46:42;8.57;;;4.18;;
65463;SDS011;52063;45.110;9.870;2023-07-20T05:49:07;6.27;;;3.90;;
65463;SDS011;52063;45.110;9.870;2023-07-20T05:51:33;8.20;;;3.33;;
65463;SDS011;52063;45.110;9.870;2023-07-20T05:53:59;6.90;;;4.13;;
65463;SDS011;52063;45.110;9.870;2023-07-20T05:56:24;8.23;;;3.50;;
65463;SDS011;52063;45.110;9.870;2023-07-20T05:58:50;12.90;;;4.20;;
65463;SDS011;52063;45.110;9.870;2023-07-20T06:01:15;6.20;;;3.83;;
65463;SDS011;52063;45.110;9.870;2023-07-20T06:03:40;5.73;;;3.47;;
65463;SDS011;52063;45.110;9.870;2023-07-20T06:06:06;7.20;;;3.60;;
65463;SDS011;52063;45.110;9.870;2023-07-20T06:08:31;5.15;;;3.30;;
65463;SDS011;52063;45.110;9.870;2023-07-20T06:10:57;6.57;;;3.20;;
65463;SDS011;52063;45.110;9.870;2023-07-20T06:13:22;7.97;;;3.17;;
65463;SDS011;52063;45.110;9.870;2023-07-20T06:15:48;6.55;;;3.28;;
65463;SDS011;52063;45.110;9.870;2023-07-20T06:18:14;7.03;;;3.35;;
65463;SDS011;52063;45.110;9.870;2023-07-20T06:20:39;6.13;;;3.33;;
65463;SDS011;52063;45.110;9.870;2023-07-20T06:23:05;8.00;;;3.40;;
65463;SDS011;52063;45.110;9.870;2023-07-20T06:25:30;6.15;;;3.15;;
65463;SDS011;52063;45.110;9.870;2023-07-20T06:27:56;9.80;;;3.40;;
65463;SDS011;52063;45.110;9.870;2023-07-20T06:30:22;6.65;;;3.53;;
65463;SDS011;52063;45.110;9.870;2023-07-20T06:32:48;9.27;;;3.90;;
65463;SDS011;52063;45.110;9.870;2023-07-20T06:35:13;10.10;;;3.63;;
65463;SDS011;52063;45.110;9.870;2023-07-20T06:37:39;9.83;;;3.80;;
65463;SDS011;52063;45.110;9.870;2023-07-20T06:40:05;9.27;;;3.47;;
65463;SDS011;52063;45.110;9.870;2023-07-20T06:42:31;11.80;;;3.55;;
65463;SDS011;52063;45.110;9.870;2023-07-20T06:44:57;11.73;;;3.57;;
65463;SDS011;52063;45.110;9.870;2023-07-20T06:47:22;6.22;;;3.08;;
65463;SDS011;52063;45.110;9.870;2023-07-20T06:49:48;8.90;;;3.47;;
65463;SDS011;52063;45.110;9.870;2023-07-20T06:52:14;8.05;;;3.63;;
65463;SDS011;52063;45.110;9.870;2023-07-20T06:54:40;5.07;;;3.20;;
65463;SDS011;52063;45.110;9.870;2023-07-20T06:57:05;8.05;;;3.38;;
65463;SDS011;52063;45.110;9.870;2023-07-20T06:59:31;6.30;;;3.60;;
65463;SDS011;52063;45.110;9.870;2023-07-20T07:01:56;6.30;;;3.20;;
65463;SDS011;52063;45.110;9.870;2023-07-20T07:04:22;6.57;;;3.70;;
65463;SDS011;52063;45.110;9.870;2023-07-20T07:06:47;5.87;;;3.43;;
65463;SDS011;52063;45.110;9.870;2023-07-20T07:09:13;9.37;;;3.67;;
65463;SDS011;52063;45.110;9.870;2023-07-20T07:11:39;5.03;;;3.35;;
65463;SDS011;52063;45.110;9.870;2023-07-20T07:14:04;6.80;;;3.27;;
65463;SDS011;52063;45.110;9.870;2023-07-20T07:16:30;6.07;;;3.40;;
65463;SDS011;52063;45.110;9.870;2023-07-20T07:18:55;5.63;;;3.27;;
65463;SDS011;52063;45.110;9.870;2023-07-20T07:21:21;5.07;;;3.13;;
65463;SDS011;52063;45.110;9.870;2023-07-20T07:23:46;7.22;;;3.90;;
65463;SDS011;52063;45.110;9.870;2023-07-20T07:26:12;8.50;;;3.40;;
65463;SDS011;52063;45.110;9.870;2023-07-20T07:28:38;7.47;;;3.55;;
65463;SDS011;52063;45.110;9.870;2023-07-20T07:31:06;3.67;;;2.87;;
65463;SDS011;52063;45.110;9.870;2023-07-20T07:33:32;6.88;;;3.35;;
65463;SDS011;52063;45.110;9.870;2023-07-20T07:35:57;8.45;;;4.00;;
65463;SDS011;52063;45.110;9.870;2023-07-20T07:38:23;6.83;;;3.83;;
65463;SDS011;52063;45.110;9.870;2023-07-20T07:40:48;9.23;;;3.73;;
65463;SDS011;52063;45.110;9.870;2023-07-20T07:43:14;6.32;;;3.90;;
65463;SDS011;52063;45.110;9.870;2023-07-20T07:45:40;5.63;;;3.40;;
65463;SDS011;52063;45.110;9.870;2023-07-20T07:48:06;5.38;;;3.50;;
65463;SDS011;52063;45.110;9.870;2023-07-20T07:50:31;4.93;;;3.25;;
65463;SDS011;52063;45.110;9.870;2023-07-20T07:52:57;4.83;;;3.10;;
65463;SDS011;52063;45.110;9.870;2023-07-20T07:55:24;5.30;;;3.53;;
65463;SDS011;52063;45.110;9.870;2023-07-20T07:57:49;7.88;;;3.83;;
65463;SDS011;52063;45.110;9.870;2023-07-20T08:00:15;4.50;;;3.53;;
65463;SDS011;52063;45.110;9.870;2023-07-20T08:02:44;7.30;;;3.80;;
65463;SDS011;52063;45.110;9.870;2023-07-20T08:05:10;5.57;;;3.30;;
65463;SDS011;52063;45.110;9.870;2023-07-20T08:07:36;5.30;;;3.75;;
65463;SDS011;52063;45.110;9.870;2023-07-20T08:10:02;6.23;;;3.40;;
65463;SDS011;52063;45.110;9.870;2023-07-20T08:12:28;6.60;;;3.50;;
65463;SDS011;52063;45.110;9.870;2023-07-20T08:14:53;5.33;;;3.67;;
65463;SDS011;52063;45.110;9.870;2023-07-20T08:17:19;6.87;;;3.57;;
65463;SDS011;52063;45.110;9.870;2023-07-20T08:19:45;5.73;;;3.40;;
65463;SDS011;52063;45.110;9.870;2023-07-20T08:22:11;7.25;;;3.40;;
65463;SDS011;52063;45.110;9.870;2023-07-20T08:24:40;6.97;;;3.53;;
65463;SDS011;52063;45.110;9.870;2023-07-20T08:27:09;6.97;;;3.50;;
65463;SDS011;52063;45.110;9.870;2023-07-20T08:29:37;5.28;;;3.55;;
65463;SDS011;52063;45.110;9.870;2023-07-20T08:32:03;5.30;;;3.30;;
65463;SDS011;52063;45.110;9.870;2023-07-20T08:34:30;4.88;;;3.38;;
65463;SDS011;52063;45.110;9.870;2023-07-20T08:36:56;4.87;;;3.80;;
65463;SDS011;52063;45.110;9.870;2023-07-20T08:39:22;8.07;;;3.75;;
65463;SDS011;52063;45.110;9.870;2023-07-20T08:41:49;11.00;;;3.60;;
65463;SDS011;52063;45.110;9.870;2023-07-20T08:44:14;7.32;;;3.50;;
65463;SDS011;52063;45.110;9.870;2023-07-20T08:46:40;4.73;;;3.60;;
65463;SDS011;52063;45.110;9.870;2023-07-20T08:49:06;5.95;;;3.60;;
65463;SDS011;52063;45.110;9.870;2023-07-20T08:51:32;8.73;;;4.03;;
65463;SDS011;52063;45.110;9.870;2023-07-20T08:53:59;5.60;;;3.17;;
65463;SDS011;52063;45.110;9.870;2023-07-20T08:56:25;7.80;;;3.53;;
65463;SDS011;52063;45.110;9.870;2023-07-20T08:58:51;8.75;;;3.28;;
65463;SDS011;52063;45.110;9.870;2023-07-20T09:01:19;5.60;;;3.33;;
65463;SDS011;52063;45.110;9.870;2023-07-20T09:03:45;7.00;;;3.30;;
65463;SDS011;52063;45.110;9.870;2023-07-20T09:06:11;6.13;;;3.50;;
65463;SDS011;52063;45.110;9.870;2023-07-20T09:08:38;5.88;;;3.40;;
65463;SDS011;52063;45.110;9.870;2023-07-20T09:11:04;5.32;;;3.05;;
65463;SDS011;52063;45.110;9.870;2023-07-20T09:13:31;6.07;;;3.80;;
65463;SDS011;52063;45.110;9.870;2023-07-20T09:15:57;5.80;;;3.10;;
65463;SDS011;52063;45.110;9.870;2023-07-20T09:18:30;5.13;;;3.60;;
65463;SDS011;52063;45.110;9.870;2023-07-20T09:21:03;5.30;;;3.20;;
65463;SDS011;52063;45.110;9.870;2023-07-20T09:23:30;4.35;;;3.10;;
65463;SDS011;52063;45.110;9.870;2023-07-20T09:25:59;5.57;;;3.17;;
65463;SDS011;52063;45.110;9.870;2023-07-20T09:28:25;7.38;;;4.15;;
65463;SDS011;52063;45.110;9.870;2023-07-20T09:30:51;9.93;;;3.73;;
65463;SDS011;52063;45.110;9.870;2023-07-20T09:33:22;7.50;;;3.70;;
65463;SDS011;52063;45.110;9.870;2023-07-20T09:35:48;7.07;;;3.63;;
65463;SDS011;52063;45.110;9.870;2023-07-20T09:38:14;5.45;;;3.53;;
65463;SDS011;52063;45.110;9.870;2023-07-20T09:40:40;8.95;;;3.28;;
65463;SDS011;52063;45.110;9.870;2023-07-20T09:43:08;4.30;;;3.37;;
65463;SDS011;52063;45.110;9.870;2023-07-20T09:45:43;6.88;;;3.50;;
65463;SDS011;52063;45.110;9.870;2023-07-20T09:48:09;4.43;;;3.35;;
65463;SDS011;52063;45.110;9.870;2023-07-20T09:50:41;9.02;;;3.55;;
65463;SDS011;52063;45.110;9.870;2023-07-20T09:53:09;11.02;;;3.75;;
65463;SDS011;52063;45.110;9.870;2023-07-20T09:55:38;4.70;;;3.30;;
65463;SDS011;52063;45.110;9.870;2023-07-20T09:58:05;6.82;;;3.17;;
65463;SDS011;52063;45.110;9.870;2023-07-20T10:00:32;7.75;;;3.90;;
65463;SDS011;52063;45.110;9.870;2023-07-20T10:02:57;11.90;;;4.35;;
65463;SDS011;52063;45.110;9.870;2023-07-20T10:05:24;9.63;;;4.03;;
65463;SDS011;52063;45.110;9.870;2023-07-20T10:07:50;9.60;;;4.07;;
65463;SDS011;52063;45.110;9.870;2023-07-20T10:10:18;7.65;;;3.90;;
65463;SDS011;52063;45.110;9.870;2023-07-20T10:12:44;6.77;;;3.57;;
65463;SDS011;52063;45.110;9.870;2023-07-20T10:15:17;11.40;;;4.07;;
65463;SDS011;52063;45.110;9.870;2023-07-20T10:17:47;7.40;;;3.17;;
65463;SDS011;52063;45.110;9.870;2023-07-20T10:20:21;9.82;;;3.78;;
65463;SDS011;52063;45.110;9.870;2023-07-20T10:22:47;5.53;;;3.40;;
65463;SDS011;52063;45.110;9.870;2023-07-20T10:25:13;9.60;;;3.88;;
65463;SDS011;52063;45.110;9.870;2023-07-20T10:27:39;6.63;;;3.80;;
65463;SDS011;52063;45.110;9.870;2023-07-20T10:30:05;5.97;;;3.30;;
65463;SDS011;52063;45.110;9.870;2023-07-20T10:32:31;5.25;;;3.75;;
65463;SDS011;52063;45.110;9.870;2023-07-20T10:34:57;6.77;;;3.60;;
65463;SDS011;52063;45.110;9.870;2023-07-20T10:40:32;4.60;;;3.53;;
65463;SDS011;52063;45.110;9.870;2023-07-20T10:43:00;4.37;;;3.30;;
65463;SDS011;52063;45.110;9.870;2023-07-20T10:50:43;6.32;;;3.67;;
65463;SDS011;52063;45.110;9.870;2023-07-20T10:53:12;6.10;;;3.60;;
65463;SDS011;52063;45.110;9.870;2023-07-20T10:55:43;5.60;;;3.67;;
65463;SDS011;52063;45.110;9.870;2023-07-20T10:58:12;6.65;;;4.03;;
65463;SDS011;52063;45.110;9.870;2023-07-20T11:03:29;7.55;;;4.10;;
65463;SDS011;52063;45.110;9.870;2023-07-20T11:05:56;6.38;;;3.97;;
65463;SDS011;52063;45.110;9.870;2023-07-20T11:08:41;5.47;;;4.10;;
65463;SDS011;52063;45.110;9.870;2023-07-20T11:11:41;5.65;;;3.95;;
65463;SDS011;52063;45.110;9.870;2023-07-20T11:14:01;7.63;;;3.85;;
65463;SDS011;52063;45.110;9.870;2023-07-20T11:16:43;9.82;;;4.38;;
65463;SDS011;52063;45.110;9.870;2023-07-20T11:19:20;10.10;;;3.97;;
65463;SDS011;52063;45.110;9.870;2023-07-20T11:21:50;8.30;;;3.83;;
65463;SDS011;52063;45.110;9.870;2023-07-20T11:24:17;7.90;;;3.85;;
65463;SDS011;52063;45.110;9.870;2023-07-20T11:26:43;10.02;;;4.03;;
65463;SDS011;52063;45.110;9.870;2023-07-20T11:29:09;6.55;;;3.85;;
65463;SDS011;52063;45.110;9.870;2023-07-20T11:31:36;6.40;;;3.57;;
65463;SDS011;52063;45.110;9.870;2023-07-20T11:34:05;5.70;;;3.60;;
65463;SDS011;52063;45.110;9.870;2023-07-20T11:36:33;6.95;;;4.10;;
65463;SDS011;52063;45.110;9.870;2023-07-20T11:38:59;5.78;;;3.45;;
65463;SDS011;52063;45.110;9.870;2023-07-20T11:41:25;6.20;;;4.03;;
65463;SDS011;52063;45.110;9.870;2023-07-20T11:43:53;6.63;;;3.87;;
65463;SDS011;52063;45.110;9.870;2023-07-20T11:46:19;8.02;;;3.97;;
65463;SDS011;52063;45.110;9.870;2023-07-20T11:48:45;7.13;;;3.53;;
65463;SDS011;52063;45.110;9.870;2023-07-20T11:51:13;4.87;;;3.27;;
65463;SDS011;52063;45.110;9.870;2023-07-20T11:53:41;6.50;;;4.18;;
65463;SDS011;52063;45.110;9.870;2023-07-20T11:56:07;5.72;;;3.95;;
65463;SDS011;52063;45.110;9.870;2023-07-20T11:58:32;7.10;;;4.50;;
65463;SDS011;52063;45.110;9.870;2023-07-20T12:00:58;7.37;;;4.13;;
65463;SDS011;52063;45.110;9.870;2023-07-20T12:03:23;9.50;;;4.47;;
65463;SDS011;52063;45.110;9.870;2023-07-20T12:05:48;10.35;;;4.22;;
65463;SDS011;52063;45.110;9.870;2023-07-20T12:08:15;4.53;;;3.70;;
65463;SDS011;52063;45.110;9.870;2023-07-20T12:10:41;7.70;;;3.90;;
65463;SDS011;52063;45.110;9.870;2023-07-20T12:13:10;9.70;;;3.92;;
65463;SDS011;52063;45.110;9.870;2023-07-20T12:15:36;8.82;;;4.30;;
65463;SDS011;52063;45.110;9.870;2023-07-20T12:18:02;5.73;;;3.97;;
65463;SDS011;52063;45.110;9.870;2023-07-20T12:22:59;9.23;;;4.75;;
65463;SDS011;52063;45.110;9.870;2023-07-20T12:25:32;8.40;;;4.53;;
65463;SDS011;52063;45.110;9.870;2023-07-20T12:28:07;7.17;;;4.50;;
65463;SDS011;52063;45.110;9.870;2023-07-20T12:30:33;9.15;;;4.60;;
65463;SDS011;52063;45.110;9.870;2023-07-20T12:32:59;7.37;;;4.30;;
65463;SDS011;52063;45.110;9.870;2023-07-20T12:35:24;7.68;;;4.22;;
65463;SDS011;52063;45.110;9.870;2023-07-20T12:37:50;7.30;;;4.30;;
65463;SDS011;52063;45.110;9.870;2023-07-20T12:40:17;6.35;;;4.32;;
65463;SDS011;52063;45.110;9.870;2023-07-20T12:42:42;9.90;;;4.60;;
65463;SDS011;52063;45.110;9.870;2023-07-20T12:45:08;8.03;;;4.20;;
65463;SDS011;52063;45.110;9.870;2023-07-20T12:47:34;7.80;;;4.30;;
65463;SDS011;52063;45.110;9.870;2023-07-20T12:49:59;6.40;;;3.80;;
65463;SDS011;52063;45.110;9.870;2023-07-20T12:52:25;5.10;;;3.90;;
65463;SDS011;52063;45.110;9.870;2023-07-20T12:54:50;5.50;;;3.80;;
65463;SDS011;52063;45.110;9.870;2023-07-20T12:57:16;6.80;;;3.90;;
65463;SDS011;52063;45.110;9.870;2023-07-20T12:59:42;6.27;;;4.23;;
65463;SDS011;52063;45.110;9.870;2023-07-20T13:02:07;6.67;;;4.30;;
65463;SDS011;52063;45.110;9.870;2023-07-20T13:04:33;7.40;;;4.03;;
65463;SDS011;52063;45.110;9.870;2023-07-20T13:06:58;7.30;;;4.00;;
65463;SDS011;52063;45.110;9.870;2023-07-20T13:09:24;8.20;;;4.35;;
65463;SDS011;52063;45.110;9.870;2023-07-20T13:11:50;7.60;;;4.17;;
65463;SDS011;52063;45.110;9.870;2023-07-20T13:14:17;6.70;;;4.40;;
65463;SDS011;52063;45.110;9.870;2023-07-20T13:16:43;7.27;;;4.37;;
65463;SDS011;52063;45.110;9.870;2023-07-20T13:19:08;8.97;;;4.50;;
65463;SDS011;52063;45.110;9.870;2023-07-20T13:21:34;6.53;;;3.93;;
65463;SDS011;52063;45.110;9.870;2023-07-20T13:23:59;9.63;;;4.07;;
65463;SDS011;52063;45.110;9.870;2023-07-20T13:26:25;8.52;;;4.20;;
65463;SDS011;52063;45.110;9.870;2023-07-20T13:28:50;6.83;;;4.20;;
65463;SDS011;52063;45.110;9.870;2023-07-20T13:31:15;8.60;;;4.13;;
65463;SDS011;52063;45.110;9.870;2023-07-20T13:33:42;6.65;;;4.55;;
65463;SDS011;52063;45.110;9.870;2023-07-20T13:36:07;6.70;;;4.10;;
65463;SDS011;52063;45.110;9.870;2023-07-20T13:38:33;7.13;;;4.13;;
65463;SDS011;52063;45.110;9.870;2023-07-20T13:40:58;9.57;;;4.30;;
65463;SDS011;52063;45.110;9.870;2023-07-20T13:43:24;7.87;;;4.13;;
65463;SDS011;52063;45.110;9.870;2023-07-20T13:45:50;6.45;;;3.90;;
65463;SDS011;52063;45.110;9.870;2023-07-20T13:48:15;8.27;;;4.50;;
65463;SDS011;52063;45.110;9.870;2023-07-20T13:50:44;8.15;;;4.15;;
65463;SDS011;52063;45.110;9.870;2023-07-20T13:53:10;8.20;;;4.43;;
65463;SDS011;52063;45.110;9.870;2023-07-20T13:55:36;8.02;;;4.45;;
65463;SDS011;52063;45.110;9.870;2023-07-20T13:58:03;6.78;;;4.47;;
65463;SDS011;52063;45.110;9.870;2023-07-20T14:00:29;6.80;;;4.30;;
65463;SDS011;52063;45.110;9.870;2023-07-20T14:02:58;5.30;;;4.10;;
65463;SDS011;52063;45.110;9.870;2023-07-20T14:05:24;5.80;;;4.60;;
65463;SDS011;52063;45.110;9.870;2023-07-20T14:07:50;10.38;;;4.57;;
65463;SDS011;52063;45.110;9.870;2023-07-20T14:10:16;9.37;;;4.70;;
65463;SDS011;52063;45.110;9.870;2023-07-20T14:12:41;9.43;;;5.00;;
65463;SDS011;52063;45.110;9.870;2023-07-20T14:15:07;11.30;;;4.38;;
65463;SDS011;52063;45.110;9.870;2023-07-20T14:17:32;10.17;;;5.63;;
65463;SDS011;52063;45.110;9.870;2023-07-20T14:19:58;7.93;;;4.93;;
65463;SDS011;52063;45.110;9.870;2023-07-20T14:22:23;11.33;;;4.93;;
65463;SDS011;52063;45.110;9.870;2023-07-20T14:24:49;10.60;;;5.10;;
65463;SDS011;52063;45.110;9.870;2023-07-20T14:27:14;9.43;;;5.10;;
65463;SDS011;52063;45.110;9.870;2023-07-20T14:29:39;7.78;;;4.93;;
65463;SDS011;52063;45.110;9.870;2023-07-20T14:32:05;7.67;;;4.40;;
65463;SDS011;52063;45.110;9.870;2023-07-20T14:34:32;10.20;;;4.78;;
65463;SDS011;52063;45.110;9.870;2023-07-20T14:36:59;6.27;;;4.17;;
65463;SDS011;52063;45.110;9.870;2023-07-20T14:39:24;10.75;;;4.85;;
65463;SDS011;52063;45.110;9.870;2023-07-20T14:41:50;7.33;;;4.60;;
65463;SDS011;52063;45.110;9.870;2023-07-20T14:44:16;7.32;;;4.50;;
65463;SDS011;52063;45.110;9.870;2023-07-20T14:46:41;13.53;;;5.20;;
65463;SDS011;52063;45.110;9.870;2023-07-20T14:49:07;6.30;;;4.70;;
65463;SDS011;52063;45.110;9.870;2023-07-20T14:51:32;6.57;;;4.20;;
65463;SDS011;52063;45.110;9.870;2023-07-20T14:54:01;6.72;;;4.28;;
65463;SDS011;52063;45.110;9.870;2023-07-20T14:56:27;8.38;;;4.45;;
65463;SDS011;52063;45.110;9.870;2023-07-20T14:58:52;8.40;;;4.53;;
65463;SDS011;52063;45.110;9.870;2023-07-20T15:01:17;6.50;;;3.93;;
65463;SDS011;52063;45.110;9.870;2023-07-20T15:03:43;5.70;;;4.07;;
65463;SDS011;52063;45.110;9.870;2023-07-20T15:06:11;5.97;;;3.80;;
65463;SDS011;52063;45.110;9.870;2023-07-20T15:08:37;7.65;;;4.53;;